Time;durP1;ratioP1;P1;durP2;ratioP2;P2;SDS_P1;SDS_P2;PMS_P1;PMS_P2;Temp;Humidity;BMP_temperature;BMP_pressure;BME280_temperature;BME280_humidity;BME280_pressure;Samples;Min_cycle;Max_cycle;Signal;HPM_P1;HPM_P2
2023/04/03 00:00:33;;;;;;;2.00;1.80;;;;;;;;;;5020627;28;20195;-33
2023/04/03 00:03:00;;;;;;;1.63;1.53;;;;;;;;;;5022741;28;20235;-34
2023/04/03 00:05:29;;;;;;;1.60;1.50;;;;;;;;;;5030652;28;20213;-34
2023/04/03 00:07:56;;;;;;;1.87;1.57;;;;;;;;;;5026731;28;20544;-34
2023/04/03 00:10:23;;;;;;;3.60;1.77;;;;;;;;;;5019590;28;20294;-35
2023/04/03 00:12:50;;;;;;;3.30;2.00;;;;;;;;;;5017108;28;20227;-35
2023/04/03 00:15:17;;;;;;;1.43;1.37;;;;;;;;;;5011949;28;20207;-35
2023/04/03 00:17:45;;;;;;;2.13;1.80;;;;;;;;;;5022728;28;20238;-33
2023/04/03 00:20:12;;;;;;;1.83;1.73;;;;;;;;;;5024813;28;20246;-35
2023/04/03 00:22:41;;;;;;;2.10;1.70;;;;;;;;;;5018262;28;20229;-35
2023/04/03 00:25:09;;;;;;;2.70;1.70;;;;;;;;;;5020073;28;20211;-37
2023/04/03 00:31:14;;;;;;;2.33;1.80;;;;;;;;;;4947162;28;20272;-29
2023/04/03 00:40:09;;;;;;;4.07;1.90;;;;;;;;;;4896011;29;20215;-28
2023/04/03 00:54:51;;;;;;;1.90;1.80;;;;;;;;;;4998123;28;20218;-28
2023/04/03 01:16:33;;;;;;;1.47;1.37;;;;;;;;;;4941543;28;20208;-27
2023/04/03 01:44:40;;;;;;;2.20;2.00;;;;;;;;;;4794524;29;20379;-28
2023/04/03 01:50:34;;;;;;;1.93;1.80;;;;;;;;;;4882735;29;20237;-27
2023/04/03 01:56:10;;;;;;;2.77;1.60;;;;;;;;;;4877509;29;20215;-28
2023/04/03 02:08:08;;;;;;;1.47;1.37;;;;;;;;;;4964199;28;20233;-28
2023/04/03 02:17:04;;;;;;;2.07;1.50;;;;;;;;;;5002997;28;20211;-28
2023/04/03 02:50:13;;;;;;;1.70;1.60;;;;;;;;;;4806756;29;20209;-26
2023/04/03 02:53:25;;;;;;;;;;;;;;;;;;;;;
2023/04/03 03:30:33;;;;;;;1.60;1.50;;;;;;;;;;4910185;29;20221;-28
2023/04/03 03:57:18;;;;;;;;;;;;;;;;;;;;;
2023/04/03 04:12:39;;;;;;;1.87;1.70;;;;;;;;;;4910731;28;20303;-26
2023/04/03 04:21:39;;;;;;;2.33;1.40;;;;;;;;;;4882540;28;20246;-29
2023/04/03 04:30:46;;;;;;;2.67;1.80;;;;;;;;;;4946493;29;20222;-28
2023/04/03 04:36:46;;;;;;;1.70;1.60;;;;;;;;;;4905488;29;20223;-29
2023/04/03 04:39:49;;;;;;;2.00;1.33;;;;;;;;;;4901803;29;20672;-26
2023/04/03 04:45:55;;;;;;;;;;;;;;;;;;;;;
2023/04/03 04:49:00;;;;;;;2.40;1.50;;;;;;;;;;4912269;29;20227;-27
2023/04/03 04:52:00;;;;;;;1.33;1.23;;;;;;;;;;4883247;29;20230;-29
2023/04/03 04:55:20;;;;;;;1.60;1.50;;;;;;;;;;4961651;28;20227;-26
2023/04/03 05:24:44;;;;;;;1.67;1.57;;;;;;;;;;4910928;29;20300;-29
2023/04/03 05:27:47;;;;;;;2.10;1.87;;;;;;;;;;4937784;28;20209;-26
2023/04/03 05:30:42;;;;;;;;;;;;;;;;;;;;;
2023/04/03 05:33:44;;;;;;;1.70;1.60;;;;;;;;;;4942375;28;20237;-28
2023/04/03 05:42:29;;;;;;;3.53;1.70;;;;;;;;;;5003431;28;20212;-27
2023/04/03 05:45:05;;;;;;;3.47;1.50;;;;;;;;;;4996145;28;21215;-28
2023/04/03 05:47:33;;;;;;;1.47;1.17;;;;;;;;;;4999616;28;20237;-29
2023/04/03 05:50:30;;;;;;;1.07;1.07;;;;;;;;;;5024237;28;20225;-29
2023/04/03 05:59:35;;;;;;;2.27;1.30;;;;;;;;;;4950292;28;20213;-28
2023/04/03 06:34:24;;;;;;;2.87;1.40;;;;;;;;;;5254329;22;20246;-41
2023/04/03 06:36:52;;;;;;;4.40;1.73;;;;;;;;;;5044515;28;20290;-42
2023/04/03 06:39:22;;;;;;;3.27;1.40;;;;;;;;;;5042326;28;20586;-37
2023/04/03 06:41:49;;;;;;;1.50;1.40;;;;;;;;;;5033556;28;20207;-37
2023/04/03 06:44:17;;;;;;;1.57;1.47;;;;;;;;;;5021217;28;20231;-40
2023/04/03 06:46:45;;;;;;;1.70;1.50;;;;;;;;;;5022552;28;20215;-37
2023/04/03 06:49:12;;;;;;;1.40;1.30;;;;;;;;;;5021475;28;20238;-40
2023/04/03 06:51:39;;;;;;;2.10;1.57;;;;;;;;;;5033058;28;20285;-41
2023/04/03 06:54:07;;;;;;;1.10;1.03;;;;;;;;;;5023967;28;20227;-39
2023/04/03 06:56:36;;;;;;;2.10;1.60;;;;;;;;;;5018680;28;20210;-42
2023/04/03 06:59:03;;;;;;;2.80;1.40;;;;;;;;;;5019768;28;20225;-42
2023/04/03 07:01:31;;;;;;;2.00;1.50;;;;;;;;;;5028493;28;20240;-39
2023/04/03 07:03:58;;;;;;;0.67;0.67;;;;;;;;;;5036695;28;20302;-42
2023/04/03 07:06:27;;;;;;;2.83;1.30;;;;;;;;;;5016774;28;20318;-40
2023/04/03 07:08:54;;;;;;;1.63;1.50;;;;;;;;;;5029941;28;20712;-42
2023/04/03 07:11:22;;;;;;;2.30;1.30;;;;;;;;;;5021809;28;20207;-36
2023/04/03 07:13:50;;;;;;;2.87;1.17;;;;;;;;;;5028992;28;20230;-38
2023/04/03 07:16:18;;;;;;;1.90;1.80;;;;;;;;;;5023639;28;20206;-38
2023/04/03 07:18:45;;;;;;;1.90;1.43;;;;;;;;;;5027018;28;20199;-41
2023/04/03 07:21:13;;;;;;;1.70;1.60;;;;;;;;;;5027956;28;20235;-42
2023/04/03 07:23:40;;;;;;;1.13;0.83;;;;;;;;;;5032347;28;20222;-40
2023/04/03 07:26:07;;;;;;;1.27;1.20;;;;;;;;;;5022430;28;20203;-37
2023/04/03 07:28:36;;;;;;;3.40;1.60;;;;;;;;;;5015407;28;20211;-35
2023/04/03 07:31:05;;;;;;;3.10;1.57;;;;;;;;;;5027716;28;20234;-37
2023/04/03 07:33:33;;;;;;;2.70;1.90;;;;;;;;;;5030045;28;20230;-41
2023/04/03 07:36:00;;;;;;;2.23;1.23;;;;;;;;;;5016645;28;20221;-40
2023/04/03 07:38:28;;;;;;;1.87;1.20;;;;;;;;;;5021833;28;20286;-43
2023/04/03 07:40:55;;;;;;;2.07;1.30;;;;;;;;;;5012555;28;20238;-36
2023/04/03 07:43:24;;;;;;;1.33;1.23;;;;;;;;;;5012414;28;20234;-37
2023/04/03 07:45:51;;;;;;;1.57;1.40;;;;;;;;;;5019416;28;20341;-44
2023/04/03 07:48:21;;;;;;;1.50;1.40;;;;;;;;;;5029799;28;20272;-40
2023/04/03 07:50:48;;;;;;;2.37;1.30;;;;;;;;;;5015776;28;20205;-41
2023/04/03 07:53:15;;;;;;;2.77;1.63;;;;;;;;;;5031899;28;20293;-41
2023/04/03 07:55:43;;;;;;;1.73;1.50;;;;;;;;;;5033387;28;20217;-43
2023/04/03 07:58:11;;;;;;;1.53;1.43;;;;;;;;;;5025702;28;20207;-41
2023/04/03 08:00:38;;;;;;;0.87;0.87;;;;;;;;;;5022260;28;20203;-39
2023/04/03 08:03:05;;;;;;;1.83;1.47;;;;;;;;;;5023234;28;20231;-43
2023/04/03 08:05:37;;;;;;;1.60;1.50;;;;;;;;;;5021525;28;20226;-42
2023/04/03 08:08:05;;;;;;;1.47;1.33;;;;;;;;;;5028393;28;20207;-41
2023/04/03 08:10:32;;;;;;;2.50;1.70;;;;;;;;;;5043558;28;20210;-34
2023/04/03 08:12:59;;;;;;;4.07;1.90;;;;;;;;;;5023265;28;20223;-41
2023/04/03 08:15:27;;;;;;;2.30;1.60;;;;;;;;;;5016203;28;20202;-37
2023/04/03 08:17:54;;;;;;;1.43;1.20;;;;;;;;;;5030570;28;20291;-39
2023/04/03 08:20:21;;;;;;;1.53;1.43;;;;;;;;;;5011774;28;20230;-40
2023/04/03 08:22:50;;;;;;;2.43;1.50;;;;;;;;;;5014821;28;20214;-44
2023/04/03 08:25:18;;;;;;;2.97;1.43;;;;;;;;;;5022764;28;20229;-39
2023/04/03 08:27:45;;;;;;;2.97;1.60;;;;;;;;;;5028690;28;20207;-35
2023/04/03 08:30:13;;;;;;;2.40;1.37;;;;;;;;;;5011008;28;20247;-38
2023/04/03 08:32:41;;;;;;;3.50;1.47;;;;;;;;;;5028408;28;20226;-40
2023/04/03 08:35:09;;;;;;;2.87;1.73;;;;;;;;;;5011166;28;20306;-38
2023/04/03 08:37:37;;;;;;;3.10;1.77;;;;;;;;;;5023185;28;20215;-37
2023/04/03 08:40:06;;;;;;;3.30;1.40;;;;;;;;;;5026126;28;20200;-37
2023/04/03 08:42:40;;;;;;;1.30;1.30;;;;;;;;;;5020853;28;20213;-36
2023/04/03 08:45:11;;;;;;;1.93;1.60;;;;;;;;;;5009808;28;20711;-44
2023/04/03 08:47:40;;;;;;;2.30;1.30;;;;;;;;;;5033731;28;20228;-39
2023/04/03 08:50:08;;;;;;;1.90;1.40;;;;;;;;;;5017442;28;20226;-38
2023/04/03 08:52:37;;;;;;;1.57;0.77;;;;;;;;;;5031521;28;20227;-35
2023/04/03 08:55:10;;;;;;;1.83;1.40;;;;;;;;;;5028214;28;20682;-37
2023/04/03 08:57:42;;;;;;;2.27;1.57;;;;;;;;;;5025842;28;20301;-41
2023/04/03 09:00:17;;;;;;;1.40;1.30;;;;;;;;;;5013411;28;20233;-36
2023/04/03 09:02:46;;;;;;;3.30;1.33;;;;;;;;;;5031011;28;20226;-39
2023/04/03 09:05:15;;;;;;;1.07;1.03;;;;;;;;;;5022380;28;20207;-38
2023/04/03 09:07:45;;;;;;;2.73;1.73;;;;;;;;;;5030958;28;20202;-40
2023/04/03 09:10:14;;;;;;;1.40;1.30;;;;;;;;;;5027009;28;20318;-41
2023/04/03 09:12:42;;;;;;;3.30;1.27;;;;;;;;;;5020672;28;20223;-40
2023/04/03 09:15:16;;;;;;;1.53;1.07;;;;;;;;;;5017000;28;20206;-42
2023/04/03 09:17:48;;;;;;;2.03;1.40;;;;;;;;;;5030043;28;20209;-37
2023/04/03 09:20:21;;;;;;;1.60;1.33;;;;;;;;;;5016282;28;20285;-40
2023/04/03 09:22:50;;;;;;;1.80;1.40;;;;;;;;;;5030261;28;20306;-44
2023/04/03 09:25:21;;;;;;;1.40;1.30;;;;;;;;;;5028265;28;20296;-37
2023/04/03 09:27:48;;;;;;;2.13;1.60;;;;;;;;;;5024752;28;20222;-35
2023/04/03 09:30:16;;;;;;;1.83;1.53;;;;;;;;;;5024486;28;20238;-41
2023/04/03 09:32:46;;;;;;;1.00;1.00;;;;;;;;;;5034640;28;20256;-39
2023/04/03 09:35:19;;;;;;;1.50;1.40;;;;;;;;;;5029150;28;20214;-37
2023/04/03 09:37:47;;;;;;;2.73;1.20;;;;;;;;;;5026868;28;20249;-39
2023/04/03 09:40:30;;;;;;;3.47;1.50;;;;;;;;;;5041209;28;20664;-37
2023/04/03 09:42:59;;;;;;;1.90;1.30;;;;;;;;;;5029596;28;20327;-37
2023/04/03 09:45:28;;;;;;;1.57;1.07;;;;;;;;;;5022890;28;20214;-39
2023/04/03 09:48:06;;;;;;;2.97;1.63;;;;;;;;;;5025438;28;20207;-35
2023/04/03 09:50:34;;;;;;;1.20;1.10;;;;;;;;;;5018610;28;20245;-38
2023/04/03 09:53:06;;;;;;;2.00;1.53;;;;;;;;;;5010123;28;20234;-40
2023/04/03 09:55:34;;;;;;;1.70;1.43;;;;;;;;;;5016537;28;20222;-43
2023/04/03 09:58:03;;;;;;;1.83;1.60;;;;;;;;;;5031120;28;20206;-40
2023/04/03 10:00:32;;;;;;;3.50;1.10;;;;;;;;;;5018317;28;20212;-35
2023/04/03 10:03:00;;;;;;;1.87;1.37;;;;;;;;;;5020397;28;20309;-36
2023/04/03 10:05:30;;;;;;;1.10;1.00;;;;;;;;;;5020642;28;20211;-39
2023/04/03 10:08:09;;;;;;;1.03;1.03;;;;;;;;;;5021853;28;20238;-36
2023/04/03 10:10:36;;;;;;;1.30;1.20;;;;;;;;;;5034813;28;20233;-39
2023/04/03 10:13:09;;;;;;;1.33;1.10;;;;;;;;;;5020937;28;20222;-40
2023/04/03 10:15:42;;;;;;;1.43;1.23;;;;;;;;;;5023614;28;20211;-39
2023/04/03 10:18:15;;;;;;;2.60;1.23;;;;;;;;;;5019766;28;20218;-38
2023/04/03 10:20:46;;;;;;;2.47;1.33;;;;;;;;;;5009703;28;20594;-36
2023/04/03 10:23:20;;;;;;;2.27;1.30;;;;;;;;;;5012723;28;20313;-42
2023/04/03 10:25:51;;;;;;;1.70;1.40;;;;;;;;;;5018723;28;20227;-44
2023/04/03 10:28:22;;;;;;;1.40;1.30;;;;;;;;;;5009575;28;20541;-36
2023/04/03 10:30:55;;;;;;;3.13;1.50;;;;;;;;;;5012284;28;20227;-36
2023/04/03 10:33:34;;;;;;;1.40;1.30;;;;;;;;;;5022313;28;20258;-41
2023/04/03 10:36:11;;;;;;;2.07;1.13;;;;;;;;;;5022476;28;20214;-39
2023/04/03 10:38:44;;;;;;;2.43;1.43;;;;;;;;;;5018066;28;20201;-41
2023/04/03 10:41:14;;;;;;;1.20;1.10;;;;;;;;;;5016681;28;20213;-39
2023/04/03 10:43:46;;;;;;;1.97;1.77;;;;;;;;;;5028157;28;20225;-37
2023/04/03 10:46:16;;;;;;;2.53;1.57;;;;;;;;;;5020839;28;20207;-41
2023/04/03 10:48:50;;;;;;;1.17;1.07;;;;;;;;;;5020458;28;20241;-37
2023/04/03 10:51:24;;;;;;;1.00;0.90;;;;;;;;;;5029422;28;20202;-36
2023/04/03 10:53:54;;;;;;;0.83;0.83;;;;;;;;;;5020410;28;20255;-36
2023/04/03 10:56:27;;;;;;;0.70;0.70;;;;;;;;;;5016193;28;20242;-38
2023/04/03 10:58:58;;;;;;;1.10;1.10;;;;;;;;;;5013933;28;20194;-41
2023/04/03 11:01:28;;;;;;;1.97;1.33;;;;;;;;;;5025105;28;20209;-40
2023/04/03 11:03:57;;;;;;;2.63;1.20;;;;;;;;;;5024397;28;20226;-36
2023/04/03 11:06:26;;;;;;;1.97;1.10;;;;;;;;;;5029893;28;20225;-40
2023/04/03 11:08:56;;;;;;;0.77;0.73;;;;;;;;;;5029324;28;20203;-41
2023/04/03 11:11:27;;;;;;;2.43;1.10;;;;;;;;;;5027728;28;20242;-41
2023/04/03 11:13:56;;;;;;;1.20;1.10;;;;;;;;;;5021861;28;20241;-37
2023/04/03 11:16:25;;;;;;;1.40;1.30;;;;;;;;;;5035188;28;20212;-39
2023/04/03 11:18:54;;;;;;;1.60;1.10;;;;;;;;;;5026872;28;20207;-37
2023/04/03 11:21:23;;;;;;;2.00;0.70;;;;;;;;;;5030015;28;20229;-37
2023/04/03 11:23:51;;;;;;;1.40;1.10;;;;;;;;;;5026659;28;20240;-40
2023/04/03 11:26:20;;;;;;;1.00;1.00;;;;;;;;;;5026093;28;20207;-38
2023/04/03 11:28:47;;;;;;;2.67;1.23;;;;;;;;;;5018223;28;20209;-42
2023/04/03 11:31:26;;;;;;;2.37;1.13;;;;;;;;;;5024360;28;20242;-43
2023/04/03 11:34:08;;;;;;;1.87;1.37;;;;;;;;;;5026887;28;20230;-42
2023/04/03 11:36:36;;;;;;;2.30;1.40;;;;;;;;;;5022632;28;20728;-40
2023/04/03 11:39:09;;;;;;;3.03;1.40;;;;;;;;;;5022610;28;20203;-43
2023/04/03 11:41:36;;;;;;;1.57;1.30;;;;;;;;;;5029905;28;20202;-41
2023/04/03 11:44:06;;;;;;;6.60;1.27;;;;;;;;;;5013092;28;20223;-41
2023/04/03 11:46:55;;;;;;;2.07;1.20;;;;;;;;;;5022333;28;20199;-40
2023/04/03 11:49:41;;;;;;;1.70;1.40;;;;;;;;;;5028722;28;20217;-35
2023/04/03 11:52:11;;;;;;;2.73;1.40;;;;;;;;;;5013969;28;20217;-39
2023/04/03 11:57:46;;;;;;;0.40;0.40;;;;;;;;;;5191089;22;20604;-39
2023/04/03 12:00:35;;;;;;;1.40;1.30;;;;;;;;;;4954661;28;20235;-44
2023/04/03 12:03:03;;;;;;;2.10;1.30;;;;;;;;;;4930746;28;20250;-40
2023/04/03 12:05:31;;;;;;;2.13;1.27;;;;;;;;;;4997762;28;20294;-43
2023/04/03 12:08:18;;;;;;;1.73;1.40;;;;;;;;;;5014346;28;20199;-40
2023/04/03 12:11:06;;;;;;;1.93;1.00;;;;;;;;;;5013026;28;20218;-44
2023/04/03 12:13:33;;;;;;;0.97;0.90;;;;;;;;;;5021401;28;20279;-41
2023/04/03 12:16:00;;;;;;;1.43;1.20;;;;;;;;;;5015059;28;20219;-40
2023/04/03 12:18:51;;;;;;;1.13;0.93;;;;;;;;;;5018222;28;20222;-37
2023/04/03 12:21:22;;;;;;;2.47;1.10;;;;;;;;;;5015447;28;20195;-41
2023/04/03 12:24:01;;;;;;;2.40;1.00;;;;;;;;;;5012964;28;20223;-40
2023/04/03 12:26:28;;;;;;;1.87;1.43;;;;;;;;;;5017150;28;20229;-39
2023/04/03 12:28:57;;;;;;;0.80;0.80;;;;;;;;;;5011743;28;20238;-42
2023/04/03 12:31:26;;;;;;;1.97;1.30;;;;;;;;;;5006145;28;20259;-42
2023/04/03 12:36:28;;;;;;;1.20;0.60;;;;;;;;;;5010974;28;20256;-39
2023/04/03 12:39:03;;;;;;;0.70;0.70;;;;;;;;;;5009250;28;20210;-41
2023/04/03 12:41:36;;;;;;;3.10;1.00;;;;;;;;;;5007082;28;20203;-41
2023/04/03 12:44:10;;;;;;;1.97;1.10;;;;;;;;;;5011979;28;20229;-36
2023/04/03 12:46:40;;;;;;;1.53;1.07;;;;;;;;;;5005338;28;20210;-42
2023/04/03 12:49:16;;;;;;;1.90;1.10;;;;;;;;;;5010952;28;20228;-41
2023/04/03 12:51:46;;;;;;;1.60;1.50;;;;;;;;;;5010735;28;20195;-40
2023/04/03 12:54:16;;;;;;;0.80;0.80;;;;;;;;;;5009708;28;20241;-39
2023/04/03 12:56:43;;;;;;;0.50;0.50;;;;;;;;;;5002884;28;20212;-35
2023/04/03 12:59:18;;;;;;;3.40;1.30;;;;;;;;;;5011204;28;20290;-39
2023/04/03 13:01:45;;;;;;;1.00;0.90;;;;;;;;;;5001151;28;20217;-33
2023/04/03 13:04:13;;;;;;;2.00;0.90;;;;;;;;;;5005503;28;20227;-37
2023/04/03 13:06:41;;;;;;;1.30;1.20;;;;;;;;;;5010939;28;20202;-42
2023/04/03 13:09:21;;;;;;;2.50;1.27;;;;;;;;;;5008062;28;20215;-39
2023/04/03 13:11:48;;;;;;;1.50;1.20;;;;;;;;;;5010212;28;20219;-36
2023/04/03 13:14:17;;;;;;;2.13;1.40;;;;;;;;;;5010893;28;20771;-37
2023/04/03 13:16:53;;;;;;;1.30;1.20;;;;;;;;;;5004015;28;20400;-43
2023/04/03 13:19:21;;;;;;;1.47;1.20;;;;;;;;;;5006808;28;20282;-41
2023/04/03 13:21:49;;;;;;;1.03;0.80;;;;;;;;;;5010320;28;20203;-38
2023/04/03 13:24:18;;;;;;;1.20;1.10;;;;;;;;;;5001909;28;20246;-40
2023/04/03 13:26:45;;;;;;;1.20;1.10;;;;;;;;;;5009507;28;20222;-38
2023/04/03 13:29:21;;;;;;;4.70;1.50;;;;;;;;;;5010457;28;20208;-38
2023/04/03 13:31:48;;;;;;;2.73;1.50;;;;;;;;;;5006996;28;20216;-40
2023/04/03 13:34:19;;;;;;;2.40;1.00;;;;;;;;;;5010297;28;20229;-40
2023/04/03 13:36:47;;;;;;;1.17;1.07;;;;;;;;;;5010965;28;20253;-40
2023/04/03 13:39:25;;;;;;;0.97;0.97;;;;;;;;;;5008086;28;20294;-36
2023/04/03 13:41:52;;;;;;;1.40;1.30;;;;;;;;;;5002221;28;20200;-33
2023/04/03 13:44:27;;;;;;;1.20;1.07;;;;;;;;;;5010452;28;20223;-34
2023/04/03 13:46:56;;;;;;;2.07;1.30;;;;;;;;;;5002611;28;20214;-34
2023/04/03 13:49:28;;;;;;;2.70;1.10;;;;;;;;;;5009173;28;20214;-42
2023/04/03 13:51:56;;;;;;;1.07;1.03;;;;;;;;;;4990503;28;20228;-37
2023/04/03 13:54:25;;;;;;;2.43;1.40;;;;;;;;;;4990871;28;20227;-39
2023/04/03 13:56:54;;;;;;;1.43;1.10;;;;;;;;;;5003443;28;20210;-39
2023/04/03 13:59:23;;;;;;;1.20;1.10;;;;;;;;;;5010142;28;20195;-38
2023/04/03 14:01:52;;;;;;;1.83;1.20;;;;;;;;;;5003622;28;20199;-39
2023/04/03 14:04:21;;;;;;;2.53;1.20;;;;;;;;;;5005660;28;20223;-39
2023/04/03 14:06:49;;;;;;;1.93;1.30;;;;;;;;;;5009367;28;20202;-43
2023/04/03 14:09:17;;;;;;;1.73;1.27;;;;;;;;;;5005331;28;20211;-34
2023/04/03 14:11:46;;;;;;;0.93;0.90;;;;;;;;;;5006099;28;20306;-40
2023/04/03 14:14:15;;;;;;;1.53;1.00;;;;;;;;;;5008503;28;20297;-36
2023/04/03 14:16:43;;;;;;;1.90;1.30;;;;;;;;;;4998770;28;20601;-42
2023/04/03 14:19:16;;;;;;;2.80;1.30;;;;;;;;;;5004177;28;20212;-40
2023/04/03 14:21:43;;;;;;;1.50;1.20;;;;;;;;;;5007042;28;20286;-35
2023/04/03 14:24:11;;;;;;;1.43;1.33;;;;;;;;;;5003427;28;20219;-40
2023/04/03 14:26:38;;;;;;;1.20;1.10;;;;;;;;;;5006989;28;20310;-44
2023/04/03 14:29:07;;;;;;;0.77;0.77;;;;;;;;;;5006579;28;20199;-41
2023/04/03 14:31:34;;;;;;;1.63;1.53;;;;;;;;;;4991281;28;20219;-37
2023/04/03 14:34:02;;;;;;;2.67;1.10;;;;;;;;;;4989434;28;20258;-39
2023/04/03 14:36:30;;;;;;;3.87;1.40;;;;;;;;;;5001881;28;20836;-41
2023/04/03 14:38:58;;;;;;;1.40;1.03;;;;;;;;;;5010126;28;20257;-41
2023/04/03 14:41:26;;;;;;;1.77;1.10;;;;;;;;;;5007358;28;20215;-40
2023/04/03 14:43:54;;;;;;;2.97;1.77;;;;;;;;;;4998383;28;20211;-42
2023/04/03 14:46:25;;;;;;;0.83;0.83;;;;;;;;;;5002543;28;20230;-35
2023/04/03 14:48:53;;;;;;;1.30;1.20;;;;;;;;;;5003767;28;20279;-36
2023/04/03 14:51:20;;;;;;;1.53;1.33;;;;;;;;;;5006515;28;20501;-32
2023/04/03 14:53:48;;;;;;;1.60;1.30;;;;;;;;;;4997746;28;20326;-40
2023/04/03 14:56:17;;;;;;;1.10;0.80;;;;;;;;;;5002287;28;20233;-38
2023/04/03 14:58:44;;;;;;;2.57;1.40;;;;;;;;;;5002027;28;20211;-43
2023/04/03 15:01:13;;;;;;;1.70;1.13;;;;;;;;;;4999531;28;20209;-34
2023/04/03 15:03:42;;;;;;;1.00;0.90;;;;;;;;;;5003334;28;20697;-38
2023/04/03 15:06:10;;;;;;;1.40;1.10;;;;;;;;;;5015557;28;20282;-43
2023/04/03 15:08:37;;;;;;;3.63;1.60;;;;;;;;;;5010668;28;20232;-39
2023/04/03 15:11:06;;;;;;;1.20;1.10;;;;;;;;;;5003361;28;20215;-38
2023/04/03 15:13:33;;;;;;;1.17;1.07;;;;;;;;;;5008731;28;20716;-43
2023/04/03 15:16:00;;;;;;;2.13;1.47;;;;;;;;;;5002926;28;20211;-41
2023/04/03 15:18:28;;;;;;;1.20;1.00;;;;;;;;;;5001174;28;20222;-38
2023/04/03 15:20:57;;;;;;;2.37;1.30;;;;;;;;;;5007810;28;20206;-39
2023/04/03 15:23:25;;;;;;;1.47;1.30;;;;;;;;;;5011089;28;20229;-38
2023/04/03 15:25:53;;;;;;;1.27;1.10;;;;;;;;;;5007217;28;20488;-43
2023/04/03 15:28:23;;;;;;;4.40;1.37;;;;;;;;;;5009913;28;20203;-43
2023/04/03 15:30:50;;;;;;;1.33;1.23;;;;;;;;;;5003391;28;20226;-38
2023/04/03 15:33:17;;;;;;;2.37;1.40;;;;;;;;;;5000319;28;20234;-41
2023/04/03 15:35:44;;;;;;;1.30;1.20;;;;;;;;;;5009454;28;20215;-39
2023/04/03 15:38:13;;;;;;;1.00;1.00;;;;;;;;;;5001695;28;20218;-43
2023/04/03 15:40:40;;;;;;;4.37;2.67;;;;;;;;;;5007436;28;20556;-38
2023/04/03 15:43:08;;;;;;;1.53;1.20;;;;;;;;;;5009184;28;20230;-39
2023/04/03 15:45:36;;;;;;;0.90;0.90;;;;;;;;;;5006738;28;20209;-40
2023/04/03 15:48:03;;;;;;;1.87;0.90;;;;;;;;;;5003741;28;20211;-37
2023/04/03 15:50:31;;;;;;;1.20;1.10;;;;;;;;;;5009617;28;20203;-34
2023/04/03 15:52:58;;;;;;;0.97;0.90;;;;;;;;;;5006191;28;20242;-42
2023/04/03 15:55:27;;;;;;;3.37;1.70;;;;;;;;;;4999245;28;20200;-37
2023/04/03 15:57:55;;;;;;;1.30;1.20;;;;;;;;;;5003800;28;20563;-41
2023/04/03 16:00:22;;;;;;;1.40;1.30;;;;;;;;;;5004611;28;20211;-42
2023/04/03 16:02:50;;;;;;;1.80;1.50;;;;;;;;;;5000760;28;20227;-41
2023/04/03 16:05:18;;;;;;;1.30;1.20;;;;;;;;;;5006832;28;20218;-34
2023/04/03 16:07:46;;;;;;;1.10;1.00;;;;;;;;;;5008188;28;20716;-40
2023/04/03 16:10:14;;;;;;;2.27;1.10;;;;;;;;;;5008933;28;20207;-38
2023/04/03 16:12:43;;;;;;;1.53;1.30;;;;;;;;;;4998829;28;20293;-41
2023/04/03 16:15:10;;;;;;;3.60;1.50;;;;;;;;;;4998404;28;20658;-39
2023/04/03 16:17:38;;;;;;;2.00;1.50;;;;;;;;;;5001359;28;20212;-39
2023/04/03 16:20:07;;;;;;;1.60;1.40;;;;;;;;;;5008062;28;20768;-37
2023/04/03 16:22:35;;;;;;;1.40;1.23;;;;;;;;;;5009309;28;20202;-39
2023/04/03 16:25:02;;;;;;;3.73;2.20;;;;;;;;;;4994200;28;20242;-39
2023/04/03 16:27:30;;;;;;;2.17;1.27;;;;;;;;;;5005466;28;20230;-38
2023/04/03 16:29:59;;;;;;;2.00;1.90;;;;;;;;;;5006312;28;20203;-37
2023/04/03 16:32:28;;;;;;;2.47;1.10;;;;;;;;;;4995411;28;20232;-40
2023/04/03 16:34:55;;;;;;;1.73;1.10;;;;;;;;;;5007963;28;20211;-38
2023/04/03 16:37:22;;;;;;;1.50;1.40;;;;;;;;;;5008665;28;20207;-40
2023/04/03 16:39:49;;;;;;;1.13;1.07;;;;;;;;;;4998074;28;20757;-44
2023/04/03 16:42:16;;;;;;;2.40;1.60;;;;;;;;;;5004570;28;20213;-40
2023/04/03 16:44:43;;;;;;;2.90;2.33;;;;;;;;;;5001157;28;20215;-37
2023/04/03 16:47:13;;;;;;;1.37;1.27;;;;;;;;;;4998212;28;20207;-34
2023/04/03 16:49:41;;;;;;;1.30;1.20;;;;;;;;;;5007049;28;20214;-40
2023/04/03 16:52:08;;;;;;;1.90;1.70;;;;;;;;;;5007677;28;20234;-40
2023/04/03 16:54:35;;;;;;;4.00;1.47;;;;;;;;;;5002255;28;20226;-38
2023/04/03 16:57:02;;;;;;;3.73;2.13;;;;;;;;;;5002349;28;20203;-39
2023/04/03 16:59:29;;;;;;;2.40;2.27;;;;;;;;;;5008934;28;20211;-39
2023/04/03 17:01:57;;;;;;;1.90;1.80;;;;;;;;;;5007596;28;20756;-39
2023/04/03 17:04:26;;;;;;;1.70;1.57;;;;;;;;;;5008264;28;20222;-39
2023/04/03 17:06:54;;;;;;;3.40;3.13;;;;;;;;;;5011819;28;20261;-39
2023/04/03 17:09:22;;;;;;;1.77;1.50;;;;;;;;;;5003841;28;20294;-40
2023/04/03 17:11:49;;;;;;;1.53;1.27;;;;;;;;;;5001064;28;20223;-38
2023/04/03 17:14:16;;;;;;;1.90;1.20;;;;;;;;;;5006226;28;20233;-38
2023/04/03 17:16:44;;;;;;;1.50;1.40;;;;;;;;;;5006443;28;20234;-39
2023/04/03 17:19:12;;;;;;;3.53;1.77;;;;;;;;;;5008857;28;20214;-41
2023/04/03 17:21:40;;;;;;;1.63;1.53;;;;;;;;;;5013215;28;20196;-39
2023/04/03 17:24:11;;;;;;;2.30;2.10;;;;;;;;;;5007523;28;20250;-40
2023/04/03 17:26:39;;;;;;;2.00;1.60;;;;;;;;;;5011964;28;20257;-42
2023/04/03 17:29:07;;;;;;;1.97;1.47;;;;;;;;;;5012209;28;20210;-39
2023/04/03 17:31:34;;;;;;;2.43;1.80;;;;;;;;;;5000453;28;20215;-43
2023/04/03 17:34:02;;;;;;;2.47;1.77;;;;;;;;;;5001635;28;20231;-40
2023/04/03 17:36:29;;;;;;;1.80;1.63;;;;;;;;;;5009065;28;20206;-42
2023/04/03 17:38:58;;;;;;;2.37;1.20;;;;;;;;;;5011232;28;20524;-41
2023/04/03 17:41:26;;;;;;;2.20;1.30;;;;;;;;;;5008438;28;20203;-42
2023/04/03 17:43:55;;;;;;;1.30;1.30;;;;;;;;;;5008507;28;20227;-34
2023/04/03 17:46:23;;;;;;;1.20;1.17;;;;;;;;;;5004987;28;20211;-42
2023/04/03 17:48:50;;;;;;;1.20;1.10;;;;;;;;;;5001373;28;20199;-41
2023/04/03 17:51:19;;;;;;;2.00;1.40;;;;;;;;;;5008205;28;20229;-45
2023/04/03 17:53:47;;;;;;;5.90;1.90;;;;;;;;;;5001810;28;20649;-37
2023/04/03 17:56:16;;;;;;;2.80;1.30;;;;;;;;;;5001152;28;20295;-37
2023/04/03 17:58:43;;;;;;;2.23;1.40;;;;;;;;;;5010290;28;20207;-42
2023/04/03 18:01:12;;;;;;;1.77;1.30;;;;;;;;;;5003453;28;20211;-40
2023/04/03 18:03:39;;;;;;;1.43;1.03;;;;;;;;;;5003407;28;20223;-42
2023/04/03 18:06:07;;;;;;;1.27;1.20;;;;;;;;;;5007481;28;20257;-40
2023/04/03 18:08:34;;;;;;;1.30;1.20;;;;;;;;;;4997415;28;20212;-38
2023/04/03 18:11:02;;;;;;;1.90;1.50;;;;;;;;;;5007010;28;20207;-42
2023/04/03 18:13:30;;;;;;;0.90;0.90;;;;;;;;;;5006630;28;20258;-42
2023/04/03 18:15:58;;;;;;;1.70;1.30;;;;;;;;;;5002313;28;20223;-45
2023/04/03 18:18:25;;;;;;;4.27;1.80;;;;;;;;;;5001798;28;20223;-36
2023/04/03 18:20:54;;;;;;;2.93;1.70;;;;;;;;;;5005634;28;20199;-39
2023/04/03 18:23:22;;;;;;;1.30;1.30;;;;;;;;;;5008550;28;20548;-40
2023/04/03 18:25:49;;;;;;;2.50;1.27;;;;;;;;;;5008596;28;20207;-42
2023/04/03 18:28:17;;;;;;;1.53;1.30;;;;;;;;;;4997087;28;20218;-44
2023/04/03 18:30:45;;;;;;;1.37;1.27;;;;;;;;;;5001713;28;21893;-36
2023/04/03 18:33:18;;;;;;;1.73;1.30;;;;;;;;;;5007371;28;20234;-33
2023/04/03 18:35:45;;;;;;;2.73;1.77;;;;;;;;;;5010247;28;20252;-35
2023/04/03 18:38:13;;;;;;;1.60;1.23;;;;;;;;;;5007855;28;20298;-41
2023/04/03 18:40:41;;;;;;;1.60;1.50;;;;;;;;;;5008371;28;20211;-37
2023/04/03 18:43:08;;;;;;;1.70;1.10;;;;;;;;;;5010676;28;20231;-39
2023/04/03 18:45:35;;;;;;;1.40;1.30;;;;;;;;;;5097134;23;20334;-28
2023/04/03 18:48:04;;;;;;;1.30;1.20;;;;;;;;;;5012708;28;20294;-29
2023/04/03 18:50:32;;;;;;;1.73;1.37;;;;;;;;;;5019739;28;20213;-28
2023/04/03 18:52:59;;;;;;;1.60;1.50;;;;;;;;;;5009960;28;20235;-28
2023/04/03 18:55:26;;;;;;;1.50;1.40;;;;;;;;;;5006884;28;20219;-28
2023/04/03 18:57:53;;;;;;;2.27;1.27;;;;;;;;;;5010504;28;20214;-29
2023/04/03 19:00:21;;;;;;;1.47;1.37;;;;;;;;;;4999668;28;20203;-27
2023/04/03 19:02:49;;;;;;;1.10;1.10;;;;;;;;;;5008771;28;20226;-27
2023/04/03 19:05:20;;;;;;;1.77;1.40;;;;;;;;;;5009320;28;20211;-26
2023/04/03 19:07:49;;;;;;;2.00;1.40;;;;;;;;;;5007493;28;20306;-28
2023/04/03 19:10:18;;;;;;;2.23;1.37;;;;;;;;;;5001903;28;20204;-27
2023/04/03 19:12:46;;;;;;;2.60;1.30;;;;;;;;;;5004031;28;20243;-27
2023/04/03 19:15:14;;;;;;;1.30;1.20;;;;;;;;;;5000758;28;20275;-30
2023/04/03 19:17:41;;;;;;;2.40;1.40;;;;;;;;;;4996604;28;20267;-29
2023/04/03 19:20:09;;;;;;;2.73;1.50;;;;;;;;;;5000656;28;20209;-27
2023/04/03 19:22:38;;;;;;;1.50;1.40;;;;;;;;;;5005488;28;20231;-27
2023/04/03 19:25:05;;;;;;;2.10;1.63;;;;;;;;;;5007207;28;20222;-29
2023/04/03 19:27:34;;;;;;;1.20;1.10;;;;;;;;;;5000591;28;20214;-25
2023/04/03 19:30:01;;;;;;;2.20;1.33;;;;;;;;;;5002169;28;20203;-30
2023/04/03 19:32:29;;;;;;;2.23;1.33;;;;;;;;;;5002057;28;20262;-28
2023/04/03 19:34:57;;;;;;;1.73;1.10;;;;;;;;;;5005560;28;20225;-27
2023/04/03 19:37:25;;;;;;;2.27;1.80;;;;;;;;;;5006429;28;20238;-28
2023/04/03 19:39:54;;;;;;;1.10;1.10;;;;;;;;;;4998568;28;20210;-30
2023/04/03 19:42:21;;;;;;;1.40;1.30;;;;;;;;;;4996803;28;20208;-28
2023/04/03 19:44:49;;;;;;;2.07;1.03;;;;;;;;;;5003573;28;20205;-26
2023/04/03 19:47:18;;;;;;;1.90;1.47;;;;;;;;;;5010121;28;20209;-27
2023/04/03 19:49:45;;;;;;;1.50;0.80;;;;;;;;;;5012010;28;20218;-30
2023/04/03 19:52:12;;;;;;;1.10;1.00;;;;;;;;;;5011104;28;20219;-25